sensor_id;sensor_type;location;lat;lon;timestamp;temperature;humidity
2112;DHT22;1062;52.538;13.400;2023-02-11T00:00:07;3.50;99.90
2112;DHT22;1062;52.538;13.400;2023-02-11T00:02:33;3.50;99.90
2112;DHT22;1062;52.538;13.400;2023-02-11T00:05:00;3.50;99.90
2112;DHT22;1062;52.538;13.400;2023-02-11T00:07:32;3.60;99.90
2112;DHT22;1062;52.538;13.400;2023-02-11T00:09:57;3.60;99.90
2112;DHT22;1062;52.538;13.400;2023-02-11T00:12:23;3.60;99.90
2112;DHT22;1062;52.538;13.400;2023-02-11T00:14:49;3.60;99.90
2112;DHT22;1062;52.538;13.400;2023-02-11T00:17:15;3.60;99.90
2112;DHT22;1062;52.538;13.400;2023-02-11T00:19:41;3.60;99.90
2112;DHT22;1062;52.538;13.400;2023-02-11T00:22:07;3.70;99.90
2112;DHT22;1062;52.538;13.400;2023-02-11T00:24:32;3.60;99.90
2112;DHT22;1062;52.538;13.400;2023-02-11T00:26:58;3.70;99.90
2112;DHT22;1062;52.538;13.400;2023-02-11T00:29:24;3.70;99.90
2112;DHT22;1062;52.538;13.400;2023-02-11T00:31:49;3.70;99.90
2112;DHT22;1062;52.538;13.400;2023-02-11T00:34:15;3.70;99.90
2112;DHT22;1062;52.538;13.400;2023-02-11T00:36:41;3.70;99.90
2112;DHT22;1062;52.538;13.400;2023-02-11T00:39:07;3.80;99.90
2112;DHT22;1062;52.538;13.400;2023-02-11T00:41:33;3.80;99.90
2112;DHT22;1062;52.538;13.400;2023-02-11T00:43:59;3.80;99.90
2112;DHT22;1062;52.538;13.400;2023-02-11T00:46:25;3.80;99.90
2112;DHT22;1062;52.538;13.400;2023-02-11T00:48:51;3.90;99.90
2112;DHT22;1062;52.538;13.400;2023-02-11T00:51:19;3.90;99.90
2112;DHT22;1062;52.538;13.400;2023-02-11T00:53:45;4.00;99.90
2112;DHT22;1062;52.538;13.400;2023-02-11T00:56:10;4.00;99.90
2112;DHT22;1062;52.538;13.400;2023-02-11T00:58:36;4.00;99.90
2112;DHT22;1062;52.538;13.400;2023-02-11T01:01:02;4.10;99.90
2112;DHT22;1062;52.538;13.400;2023-02-11T01:03:28;4.10;99.90
2112;DHT22;1062;52.538;13.400;2023-02-11T01:05:54;4.10;99.90
2112;DHT22;1062;52.538;13.400;2023-02-11T01:08:19;4.10;99.90
2112;DHT22;1062;52.538;13.400;2023-02-11T01:10:53;4.10;99.90
2112;DHT22;1062;52.538;13.400;2023-02-11T01:13:18;4.20;99.90
2112;DHT22;1062;52.538;13.400;2023-02-11T01:15:44;4.20;99.90
2112;DHT22;1062;52.538;13.400;2023-02-11T01:18:10;4.20;99.90
2112;DHT22;1062;52.538;13.400;2023-02-11T01:20:35;4.20;99.90
2112;DHT22;1062;52.538;13.400;2023-02-11T01:23:01;4.20;99.90
2112;DHT22;1062;52.538;13.400;2023-02-11T01:25:26;4.20;99.90
2112;DHT22;1062;52.538;13.400;2023-02-11T01:27:52;4.10;99.90
2112;DHT22;1062;52.538;13.400;2023-02-11T01:30:18;4.10;99.90
2112;DHT22;1062;52.538;13.400;2023-02-11T01:32:43;4.10;99.90
2112;DHT22;1062;52.538;13.400;2023-02-11T01:35:09;4.10;99.90
2112;DHT22;1062;52.538;13.400;2023-02-11T01:37:35;4.10;99.90
2112;DHT22;1062;52.538;13.400;2023-02-11T01:40:02;4.10;99.90
2112;DHT22;1062;52.538;13.400;2023-02-11T01:42:28;4.10;99.90
2112;DHT22;1062;52.538;13.400;2023-02-11T01:44:55;4.10;99.90
2112;DHT22;1062;52.538;13.400;2023-02-11T01:47:21;4.20;99.90
2112;DHT22;1062;52.538;13.400;2023-02-11T01:49:58;4.20;99.90
2112;DHT22;1062;52.538;13.400;2023-02-11T01:52:30;4.10;99.90
2112;DHT22;1062;52.538;13.400;2023-02-11T01:54:59;4.20;99.90
2112;DHT22;1062;52.538;13.400;2023-02-11T01:57:47;4.20;99.90
2112;DHT22;1062;52.538;13.400;2023-02-11T02:00:29;4.20;99.90
2112;DHT22;1062;52.538;13.400;2023-02-11T02:03:09;4.30;99.90
2112;DHT22;1062;52.538;13.400;2023-02-11T02:11:20;4.30;99.90
2112;DHT22;1062;52.538;13.400;2023-02-11T02:13:45;4.40;99.90
2112;DHT22;1062;52.538;13.400;2023-02-11T02:16:17;4.40;99.90
2112;DHT22;1062;52.538;13.400;2023-02-11T02:19:02;4.40;99.90
2112;DHT22;1062;52.538;13.400;2023-02-11T02:35:51;4.50;99.90
2112;DHT22;1062;52.538;13.400;2023-02-11T02:38:38;4.60;99.90
2112;DHT22;1062;52.538;13.400;2023-02-11T02:41:10;4.60;99.90
2112;DHT22;1062;52.538;13.400;2023-02-11T02:43:40;4.60;99.90
2112;DHT22;1062;52.538;13.400;2023-02-11T02:46:27;4.60;99.90
2112;DHT22;1062;52.538;13.400;2023-02-11T02:48:54;4.60;99.90
2112;DHT22;1062;52.538;13.400;2023-02-11T02:56:53;4.70;99.90
2112;DHT22;1062;52.538;13.400;2023-02-11T03:02:12;4.70;99.90
2112;DHT22;1062;52.538;13.400;2023-02-11T03:04:42;4.70;99.90
2112;DHT22;1062;52.538;13.400;2023-02-11T03:09:48;4.70;99.90
2112;DHT22;1062;52.538;13.400;2023-02-11T03:12:16;4.70;99.90
2112;DHT22;1062;52.538;13.400;2023-02-11T03:14:42;4.70;99.90
2112;DHT22;1062;52.538;13.400;2023-02-11T03:17:09;4.70;99.90
2112;DHT22;1062;52.538;13.400;2023-02-11T03:19:40;4.70;99.90
2112;DHT22;1062;52.538;13.400;2023-02-11T03:22:12;4.70;99.90
2112;DHT22;1062;52.538;13.400;2023-02-11T03:24:41;4.70;99.90
2112;DHT22;1062;52.538;13.400;2023-02-11T03:27:24;4.70;99.90
2112;DHT22;1062;52.538;13.400;2023-02-11T03:29:58;4.80;99.90
2112;DHT22;1062;52.538;13.400;2023-02-11T03:32:35;4.80;99.90
2112;DHT22;1062;52.538;13.400;2023-02-11T03:38:04;4.70;99.90
2112;DHT22;1062;52.538;13.400;2023-02-11T03:40:35;4.70;99.90
2112;DHT22;1062;52.538;13.400;2023-02-11T03:45:37;4.80;99.90
2112;DHT22;1062;52.538;13.400;2023-02-11T03:48:08;4.70;99.90
2112;DHT22;1062;52.538;13.400;2023-02-11T03:50:36;4.80;99.90
2112;DHT22;1062;52.538;13.400;2023-02-11T03:53:03;4.80;99.90
2112;DHT22;1062;52.538;13.400;2023-02-11T03:55:32;4.80;99.90
2112;DHT22;1062;52.538;13.400;2023-02-11T03:58:00;4.80;99.90
2112;DHT22;1062;52.538;13.400;2023-02-11T04:00:29;4.80;99.90
2112;DHT22;1062;52.538;13.400;2023-02-11T04:02:55;4.80;99.90
2112;DHT22;1062;52.538;13.400;2023-02-11T04:05:21;4.80;99.90
2112;DHT22;1062;52.538;13.400;2023-02-11T04:07:46;4.80;99.90
2112;DHT22;1062;52.538;13.400;2023-02-11T04:10:12;4.80;99.90
2112;DHT22;1062;52.538;13.400;2023-02-11T04:12:37;4.80;99.90
2112;DHT22;1062;52.538;13.400;2023-02-11T04:15:03;4.80;99.90
2112;DHT22;1062;52.538;13.400;2023-02-11T04:17:29;4.80;99.90
2112;DHT22;1062;52.538;13.400;2023-02-11T04:19:54;4.90;99.90
2112;DHT22;1062;52.538;13.400;2023-02-11T04:22:20;4.80;99.90
2112;DHT22;1062;52.538;13.400;2023-02-11T04:24:46;4.90;99.90
2112;DHT22;1062;52.538;13.400;2023-02-11T04:27:11;4.90;99.90
2112;DHT22;1062;52.538;13.400;2023-02-11T04:29:37;4.90;99.90
2112;DHT22;1062;52.538;13.400;2023-02-11T04:32:02;4.90;99.90
2112;DHT22;1062;52.538;13.400;2023-02-11T04:34:28;4.90;99.90
2112;DHT22;1062;52.538;13.400;2023-02-11T04:36:54;4.90;99.90
2112;DHT22;1062;52.538;13.400;2023-02-11T04:39:19;5.00;99.90
2112;DHT22;1062;52.538;13.400;2023-02-11T04:41:45;4.90;99.90
2112;DHT22;1062;52.538;13.400;2023-02-11T04:44:10;4.90;99.90
2112;DHT22;1062;52.538;13.400;2023-02-11T04:46:36;5.00;99.90
2112;DHT22;1062;52.538;13.400;2023-02-11T04:49:02;4.90;99.90
2112;DHT22;1062;52.538;13.400;2023-02-11T04:51:27;4.90;99.90
2112;DHT22;1062;52.538;13.400;2023-02-11T04:53:53;4.90;99.90
2112;DHT22;1062;52.538;13.400;2023-02-11T04:56:19;4.90;99.90
2112;DHT22;1062;52.538;13.400;2023-02-11T04:58:44;4.90;99.90
2112;DHT22;1062;52.538;13.400;2023-02-11T05:01:12;4.90;99.90
2112;DHT22;1062;52.538;13.400;2023-02-11T05:03:38;4.90;99.90
2112;DHT22;1062;52.538;13.400;2023-02-11T05:06:04;4.90;99.90
2112;DHT22;1062;52.538;13.400;2023-02-11T05:08:30;4.90;99.90
2112;DHT22;1062;52.538;13.400;2023-02-11T05:10:56;4.90;99.90
2112;DHT22;1062;52.538;13.400;2023-02-11T05:13:22;4.90;99.90
2112;DHT22;1062;52.538;13.400;2023-02-11T05:15:48;4.80;99.90
2112;DHT22;1062;52.538;13.400;2023-02-11T05:18:13;4.90;99.90
2112;DHT22;1062;52.538;13.400;2023-02-11T05:20:40;4.80;99.90
2112;DHT22;1062;52.538;13.400;2023-02-11T05:23:06;4.80;99.90
2112;DHT22;1062;52.538;13.400;2023-02-11T05:25:32;4.80;99.90
2112;DHT22;1062;52.538;13.400;2023-02-11T05:27:58;4.90;99.90
2112;DHT22;1062;52.538;13.400;2023-02-11T05:30:23;4.90;99.90
2112;DHT22;1062;52.538;13.400;2023-02-11T05:32:49;4.90;99.90
2112;DHT22;1062;52.538;13.400;2023-02-11T05:35:15;4.90;99.90
2112;DHT22;1062;52.538;13.400;2023-02-11T05:37:40;4.90;99.90
2112;DHT22;1062;52.538;13.400;2023-02-11T05:40:06;4.90;99.90
2112;DHT22;1062;52.538;13.400;2023-02-11T05:42:32;4.90;99.90
2112;DHT22;1062;52.538;13.400;2023-02-11T05:44:58;4.90;99.90
2112;DHT22;1062;52.538;13.400;2023-02-11T05:47:23;4.90;99.90
2112;DHT22;1062;52.538;13.400;2023-02-11T05:49:50;5.00;99.90
2112;DHT22;1062;52.538;13.400;2023-02-11T05:52:15;5.00;99.90
2112;DHT22;1062;52.538;13.400;2023-02-11T05:54:41;5.00;99.90
2112;DHT22;1062;52.538;13.400;2023-02-11T05:57:06;5.00;99.90
2112;DHT22;1062;52.538;13.400;2023-02-11T05:59:32;5.00;99.90
2112;DHT22;1062;52.538;13.400;2023-02-11T06:01:58;5.00;99.90
2112;DHT22;1062;52.538;13.400;2023-02-11T06:04:23;5.00;99.90
2112;DHT22;1062;52.538;13.400;2023-02-11T06:06:49;5.00;99.90
2112;DHT22;1062;52.538;13.400;2023-02-11T06:09:14;5.00;99.90
2112;DHT22;1062;52.538;13.400;2023-02-11T06:11:40;5.00;99.90
2112;DHT22;1062;52.538;13.400;2023-02-11T06:14:05;5.00;99.90
2112;DHT22;1062;52.538;13.400;2023-02-11T06:16:31;5.10;99.90
2112;DHT22;1062;52.538;13.400;2023-02-11T06:18:57;5.10;99.90
2112;DHT22;1062;52.538;13.400;2023-02-11T06:21:22;5.10;99.90
2112;DHT22;1062;52.538;13.400;2023-02-11T06:23:48;5.10;99.90
2112;DHT22;1062;52.538;13.400;2023-02-11T06:26:19;5.10;99.90
2112;DHT22;1062;52.538;13.400;2023-02-11T06:28:45;5.10;99.90
2112;DHT22;1062;52.538;13.400;2023-02-11T06:31:12;5.10;99.90
2112;DHT22;1062;52.538;13.400;2023-02-11T06:33:38;5.20;99.90
2112;DHT22;1062;52.538;13.400;2023-02-11T06:36:12;5.20;99.90
2112;DHT22;1062;52.538;13.400;2023-02-11T06:38:38;5.20;99.90
2112;DHT22;1062;52.538;13.400;2023-02-11T06:41:03;5.20;99.90
2112;DHT22;1062;52.538;13.400;2023-02-11T06:43:29;5.20;99.90
2112;DHT22;1062;52.538;13.400;2023-02-11T06:45:55;5.20;99.90
2112;DHT22;1062;52.538;13.400;2023-02-11T06:48:22;5.20;99.90
2112;DHT22;1062;52.538;13.400;2023-02-11T06:50:47;5.20;99.90
2112;DHT22;1062;52.538;13.400;2023-02-11T06:53:13;5.30;99.90
2112;DHT22;1062;52.538;13.400;2023-02-11T06:55:39;5.30;99.90
2112;DHT22;1062;52.538;13.400;2023-02-11T06:58:05;5.30;99.90
2112;DHT22;1062;52.538;13.400;2023-02-11T07:00:30;5.30;99.90
2112;DHT22;1062;52.538;13.400;2023-02-11T07:02:56;5.30;99.90
2112;DHT22;1062;52.538;13.400;2023-02-11T07:05:22;5.30;99.90
2112;DHT22;1062;52.538;13.400;2023-02-11T07:07:47;5.30;99.90
2112;DHT22;1062;52.538;13.400;2023-02-11T07:10:13;5.40;99.90
2112;DHT22;1062;52.538;13.400;2023-02-11T07:12:38;5.40;99.90
2112;DHT22;1062;52.538;13.400;2023-02-11T07:15:05;5.40;99.90
2112;DHT22;1062;52.538;13.400;2023-02-11T07:17:30;5.40;99.90
2112;DHT22;1062;52.538;13.400;2023-02-11T07:19:56;5.50;99.90
2112;DHT22;1062;52.538;13.400;2023-02-11T07:22:21;5.50;99.90
2112;DHT22;1062;52.538;13.400;2023-02-11T07:24:47;5.50;99.90
2112;DHT22;1062;52.538;13.400;2023-02-11T07:27:13;5.60;99.90
2112;DHT22;1062;52.538;13.400;2023-02-11T07:29:38;5.60;99.90
2112;DHT22;1062;52.538;13.400;2023-02-11T07:32:04;5.70;99.90
2112;DHT22;1062;52.538;13.400;2023-02-11T07:34:30;5.70;99.90
2112;DHT22;1062;52.538;13.400;2023-02-11T07:36:56;5.80;99.90
2112;DHT22;1062;52.538;13.400;2023-02-11T07:39:22;5.80;99.90
2112;DHT22;1062;52.538;13.400;2023-02-11T07:41:54;5.80;99.90
2112;DHT22;1062;52.538;13.400;2023-02-11T07:44:20;5.80;99.90
2112;DHT22;1062;52.538;13.400;2023-02-11T07:46:46;5.90;99.90
2112;DHT22;1062;52.538;13.400;2023-02-11T07:49:14;5.90;99.90
2112;DHT22;1062;52.538;13.400;2023-02-11T07:51:40;5.90;99.90
2112;DHT22;1062;52.538;13.400;2023-02-11T07:54:06;6.00;99.90
2112;DHT22;1062;52.538;13.400;2023-02-11T07:56:31;6.00;99.90
2112;DHT22;1062;52.538;13.400;2023-02-11T07:59:00;6.00;99.90
2112;DHT22;1062;52.538;13.400;2023-02-11T08:01:28;5.90;99.90
2112;DHT22;1062;52.538;13.400;2023-02-11T08:03:55;6.00;99.90
2112;DHT22;1062;52.538;13.400;2023-02-11T08:06:23;6.00;99.90
2112;DHT22;1062;52.538;13.400;2023-02-11T08:08:49;6.00;99.90
2112;DHT22;1062;52.538;13.400;2023-02-11T08:11:17;6.00;99.90
2112;DHT22;1062;52.538;13.400;2023-02-11T08:13:43;6.00;99.90
2112;DHT22;1062;52.538;13.400;2023-02-11T08:16:20;6.00;99.90
2112;DHT22;1062;52.538;13.400;2023-02-11T08:18:47;6.10;99.90
2112;DHT22;1062;52.538;13.400;2023-02-11T08:21:13;6.10;99.90
2112;DHT22;1062;52.538;13.400;2023-02-11T08:23:40;6.20;99.90
2112;DHT22;1062;52.538;13.400;2023-02-11T08:26:12;6.20;99.90
2112;DHT22;1062;52.538;13.400;2023-02-11T08:28:39;6.30;99.90
2112;DHT22;1062;52.538;13.400;2023-02-11T08:31:10;6.20;99.90
2112;DHT22;1062;52.538;13.400;2023-02-11T08:33:36;6.20;99.90
2112;DHT22;1062;52.538;13.400;2023-02-11T08:36:11;6.20;99.90
2112;DHT22;1062;52.538;13.400;2023-02-11T08:38:37;6.20;99.90
2112;DHT22;1062;52.538;13.400;2023-02-11T08:41:03;6.20;99.90
2112;DHT22;1062;52.538;13.400;2023-02-11T08:43:29;6.20;99.90
2112;DHT22;1062;52.538;13.400;2023-02-11T08:45:54;6.30;99.90
2112;DHT22;1062;52.538;13.400;2023-02-11T08:48:20;6.20;99.90
2112;DHT22;1062;52.538;13.400;2023-02-11T08:50:46;6.20;99.90
2112;DHT22;1062;52.538;13.400;2023-02-11T08:53:11;6.20;99.90
2112;DHT22;1062;52.538;13.400;2023-02-11T08:55:37;6.20;99.90
2112;DHT22;1062;52.538;13.400;2023-02-11T08:58:03;6.20;99.90
2112;DHT22;1062;52.538;13.400;2023-02-11T09:00:29;6.20;99.90
2112;DHT22;1062;52.538;13.400;2023-02-11T09:02:55;6.30;99.90
2112;DHT22;1062;52.538;13.400;2023-02-11T09:05:20;6.30;99.90
2112;DHT22;1062;52.538;13.400;2023-02-11T09:07:47;6.30;99.90
2112;DHT22;1062;52.538;13.400;2023-02-11T09:10:13;6.30;99.90
2112;DHT22;1062;52.538;13.400;2023-02-11T09:12:38;6.30;99.90
2112;DHT22;1062;52.538;13.400;2023-02-11T09:15:04;6.30;99.90
2112;DHT22;1062;52.538;13.400;2023-02-11T09:17:30;6.30;99.90
2112;DHT22;1062;52.538;13.400;2023-02-11T09:19:55;6.30;99.90
2112;DHT22;1062;52.538;13.400;2023-02-11T09:22:21;6.30;99.90
2112;DHT22;1062;52.538;13.400;2023-02-11T09:24:47;6.30;99.90
2112;DHT22;1062;52.538;13.400;2023-02-11T09:27:12;6.30;99.90
2112;DHT22;1062;52.538;13.400;2023-02-11T09:29:38;6.40;99.90
2112;DHT22;1062;52.538;13.400;2023-02-11T09:32:04;6.40;99.90
2112;DHT22;1062;52.538;13.400;2023-02-11T09:34:29;6.40;99.90
2112;DHT22;1062;52.538;13.400;2023-02-11T09:36:55;6.40;99.90
2112;DHT22;1062;52.538;13.400;2023-02-11T09:39:20;6.40;99.90
2112;DHT22;1062;52.538;13.400;2023-02-11T09:42:22;6.50;99.90
2112;DHT22;1062;52.538;13.400;2023-02-11T09:44:51;6.40;99.90
2112;DHT22;1062;52.538;13.400;2023-02-11T09:47:25;6.40;99.90
2112;DHT22;1062;52.538;13.400;2023-02-11T09:49:57;6.40;99.90
2112;DHT22;1062;52.538;13.400;2023-02-11T09:54:58;6.50;99.90
2112;DHT22;1062;52.538;13.400;2023-02-11T09:57:31;6.50;99.90
2112;DHT22;1062;52.538;13.400;2023-02-11T09:59:57;6.60;99.90
2112;DHT22;1062;52.538;13.400;2023-02-11T10:02:39;6.60;99.90
2112;DHT22;1062;52.538;13.400;2023-02-11T10:08:04;6.50;99.90
2112;DHT22;1062;52.538;13.400;2023-02-11T10:10:37;6.50;99.90
2112;DHT22;1062;52.538;13.400;2023-02-11T10:21:28;6.60;99.90
2112;DHT22;1062;52.538;13.400;2023-02-11T10:23:56;6.70;99.90
2112;DHT22;1062;52.538;13.400;2023-02-11T10:26:29;6.60;99.90
2112;DHT22;1062;52.538;13.400;2023-02-11T10:28:59;6.50;99.90
2112;DHT22;1062;52.538;13.400;2023-02-11T10:31:34;6.50;99.90
2112;DHT22;1062;52.538;13.400;2023-02-11T10:34:08;6.50;99.90
2112;DHT22;1062;52.538;13.400;2023-02-11T10:36:36;6.60;99.90
2112;DHT22;1062;52.538;13.400;2023-02-11T10:39:20;6.60;99.90
2112;DHT22;1062;52.538;13.400;2023-02-11T10:42:06;6.60;99.90
2112;DHT22;1062;52.538;13.400;2023-02-11T10:44:37;6.50;99.90
2112;DHT22;1062;52.538;13.400;2023-02-11T10:47:09;6.50;99.90
2112;DHT22;1062;52.538;13.400;2023-02-11T10:49:44;6.60;99.90
2112;DHT22;1062;52.538;13.400;2023-02-11T10:52:24;6.60;99.90
2112;DHT22;1062;52.538;13.400;2023-02-11T10:55:00;6.60;99.90
2112;DHT22;1062;52.538;13.400;2023-02-11T10:57:33;6.60;99.90
2112;DHT22;1062;52.538;13.400;2023-02-11T11:00:05;6.70;99.90
2112;DHT22;1062;52.538;13.400;2023-02-11T11:02:35;6.70;99.90
2112;DHT22;1062;52.538;13.400;2023-02-11T11:05:16;6.70;99.90
2112;DHT22;1062;52.538;13.400;2023-02-11T11:07:57;6.60;99.90
2112;DHT22;1062;52.538;13.400;2023-02-11T11:10:44;6.70;99.90
2112;DHT22;1062;52.538;13.400;2023-02-11T11:13:24;6.70;99.90
2112;DHT22;1062;52.538;13.400;2023-02-11T11:16:21;6.80;99.90
2112;DHT22;1062;52.538;13.400;2023-02-11T11:18:49;6.90;99.90
2112;DHT22;1062;52.538;13.400;2023-02-11T11:21:29;6.80;99.90
2112;DHT22;1062;52.538;13.400;2023-02-11T11:23:58;6.80;99.90
2112;DHT22;1062;52.538;13.400;2023-02-11T11:26:41;6.70;99.90
2112;DHT22;1062;52.538;13.400;2023-02-11T11:31:58;6.80;99.90
2112;DHT22;1062;52.538;13.400;2023-02-11T11:34:40;6.70;99.90
2112;DHT22;1062;52.538;13.400;2023-02-11T11:37:23;6.70;99.90
2112;DHT22;1062;52.538;13.400;2023-02-11T11:42:38;6.80;99.90
2112;DHT22;1062;52.538;13.400;2023-02-11T11:47:57;6.80;99.90
2112;DHT22;1062;52.538;13.400;2023-02-11T11:50:34;6.80;99.90
2112;DHT22;1062;52.538;13.400;2023-02-11T11:53:04;6.80;99.90
2112;DHT22;1062;52.538;13.400;2023-02-11T11:55:38;6.90;99.90
2112;DHT22;1062;52.538;13.400;2023-02-11T11:58:16;6.90;99.90
2112;DHT22;1062;52.538;13.400;2023-02-11T12:00:53;6.90;99.90
2112;DHT22;1062;52.538;13.400;2023-02-11T12:22:17;7.20;99.90
2112;DHT22;1062;52.538;13.400;2023-02-11T12:41:08;7.40;99.90
2112;DHT22;1062;52.538;13.400;2023-02-11T12:43:39;7.40;99.90
2112;DHT22;1062;52.538;13.400;2023-02-11T12:56:59;7.40;99.90
2112;DHT22;1062;52.538;13.400;2023-02-11T13:02:26;7.40;99.90
2112;DHT22;1062;52.538;13.400;2023-02-11T13:05:07;7.40;99.90
2112;DHT22;1062;52.538;13.400;2023-02-11T13:07:39;7.40;99.90
2112;DHT22;1062;52.538;13.400;2023-02-11T13:10:32;7.40;99.90
2112;DHT22;1062;52.538;13.400;2023-02-11T13:13:01;7.40;99.90
2112;DHT22;1062;52.538;13.400;2023-02-11T13:15:52;7.40;99.90
2112;DHT22;1062;52.538;13.400;2023-02-11T13:21:17;7.50;99.90
2112;DHT22;1062;52.538;13.400;2023-02-11T13:26:20;7.50;99.90
2112;DHT22;1062;52.538;13.400;2023-02-11T13:29:47;7.50;99.90
2112;DHT22;1062;52.538;13.400;2023-02-11T13:32:10;7.40;99.90
2112;DHT22;1062;52.538;13.400;2023-02-11T13:39:59;7.40;99.90
2112;DHT22;1062;52.538;13.400;2023-02-11T13:42:26;7.40;99.90
2112;DHT22;1062;52.538;13.400;2023-02-11T13:44:53;7.40;99.90
2112;DHT22;1062;52.538;13.400;2023-02-11T13:49:53;7.50;99.90
2112;DHT22;1062;52.538;13.400;2023-02-11T13:52:28;7.50;99.90
2112;DHT22;1062;52.538;13.400;2023-02-11T13:54:57;7.50;99.90
2112;DHT22;1062;52.538;13.400;2023-02-11T13:57:29;7.40;99.90
2112;DHT22;1062;52.538;13.400;2023-02-11T14:00:06;7.40;99.90
2112;DHT22;1062;52.538;13.400;2023-02-11T14:02:36;7.40;99.90
2112;DHT22;1062;52.538;13.400;2023-02-11T14:11:10;7.40;99.90
2112;DHT22;1062;52.538;13.400;2023-02-11T14:16:21;7.50;99.90
2112;DHT22;1062;52.538;13.400;2023-02-11T14:26:47;7.50;99.90
2112;DHT22;1062;52.538;13.400;2023-02-11T14:32:16;7.40;99.90
2112;DHT22;1062;52.538;13.400;2023-02-11T14:41:05;7.40;99.90
2112;DHT22;1062;52.538;13.400;2023-02-11T14:43:39;7.40;99.90
2112;DHT22;1062;52.538;13.400;2023-02-11T14:46:06;7.40;99.90
2112;DHT22;1062;52.538;13.400;2023-02-11T14:48:34;7.40;99.90
2112;DHT22;1062;52.538;13.400;2023-02-11T14:51:10;7.40;99.90
2112;DHT22;1062;52.538;13.400;2023-02-11T14:53:43;7.40;99.90
2112;DHT22;1062;52.538;13.400;2023-02-11T14:56:22;7.40;99.90
2112;DHT22;1062;52.538;13.400;2023-02-11T14:58:51;7.40;99.90
2112;DHT22;1062;52.538;13.400;2023-02-11T15:01:38;7.40;99.90
2112;DHT22;1062;52.538;13.400;2023-02-11T15:04:12;7.40;99.90
2112;DHT22;1062;52.538;13.400;2023-02-11T15:06:46;7.40;99.90
2112;DHT22;1062;52.538;13.400;2023-02-11T15:11:48;7.40;99.90
2112;DHT22;1062;52.538;13.400;2023-02-11T15:14:27;7.40;99.90
2112;DHT22;1062;52.538;13.400;2023-02-11T15:16:58;7.40;99.90
2112;DHT22;1062;52.538;13.400;2023-02-11T15:19:29;7.40;99.90
2112;DHT22;1062;52.538;13.400;2023-02-11T15:21:56;7.40;99.90
2112;DHT22;1062;52.538;13.400;2023-02-11T15:24:30;7.50;99.90
2112;DHT22;1062;52.538;13.400;2023-02-11T15:27:01;7.40;99.90
2112;DHT22;1062;52.538;13.400;2023-02-11T15:29:35;7.40;99.90
2112;DHT22;1062;52.538;13.400;2023-02-11T15:32:06;7.40;99.90
2112;DHT22;1062;52.538;13.400;2023-02-11T15:34:35;7.40;99.90
2112;DHT22;1062;52.538;13.400;2023-02-11T15:37:02;7.40;99.90
2112;DHT22;1062;52.538;13.400;2023-02-11T15:39:39;7.40;99.90
2112;DHT22;1062;52.538;13.400;2023-02-11T15:42:27;7.40;99.90
2112;DHT22;1062;52.538;13.400;2023-02-11T15:47:50;7.40;99.90
2112;DHT22;1062;52.538;13.400;2023-02-11T15:50:20;7.40;99.90
2112;DHT22;1062;52.538;13.400;2023-02-11T15:52:46;7.40;99.90
2112;DHT22;1062;52.538;13.400;2023-02-11T15:55:14;7.40;99.90
2112;DHT22;1062;52.538;13.400;2023-02-11T15:58:00;7.40;99.90
2112;DHT22;1062;52.538;13.400;2023-02-11T16:00:44;7.40;99.90
2112;DHT22;1062;52.538;13.400;2023-02-11T16:03:36;7.40;99.90
2112;DHT22;1062;52.538;13.400;2023-02-11T16:06:23;7.40;99.90
2112;DHT22;1062;52.538;13.400;2023-02-11T16:09:00;7.40;99.90
2112;DHT22;1062;52.538;13.400;2023-02-11T16:11:32;7.40;99.90
2112;DHT22;1062;52.538;13.400;2023-02-11T16:13:58;7.40;99.90
2112;DHT22;1062;52.538;13.400;2023-02-11T16:16:30;7.40;99.90
2112;DHT22;1062;52.538;13.400;2023-02-11T16:19:01;7.40;99.90
2112;DHT22;1062;52.538;13.400;2023-02-11T16:21:43;7.40;99.90
2112;DHT22;1062;52.538;13.400;2023-02-11T16:26:48;7.40;99.90
2112;DHT22;1062;52.538;13.400;2023-02-11T16:29:24;7.40;99.90
2112;DHT22;1062;52.538;13.400;2023-02-11T16:31:51;7.40;99.90
2112;DHT22;1062;52.538;13.400;2023-02-11T16:34:22;7.40;99.90
2112;DHT22;1062;52.538;13.400;2023-02-11T16:36:49;7.40;99.90
2112;DHT22;1062;52.538;13.400;2023-02-11T16:39:16;7.40;99.90
2112;DHT22;1062;52.538;13.400;2023-02-11T16:41:42;7.40;99.90
2112;DHT22;1062;52.538;13.400;2023-02-11T16:44:08;7.40;99.90
2112;DHT22;1062;52.538;13.400;2023-02-11T16:46:35;7.40;99.90
2112;DHT22;1062;52.538;13.400;2023-02-11T16:49:19;7.40;99.90
2112;DHT22;1062;52.538;13.400;2023-02-11T16:51:49;7.40;99.90
2112;DHT22;1062;52.538;13.400;2023-02-11T16:54:17;7.40;99.90
2112;DHT22;1062;52.538;13.400;2023-02-11T16:56:43;7.40;99.90
2112;DHT22;1062;52.538;13.400;2023-02-11T16:59:09;7.40;99.90
2112;DHT22;1062;52.538;13.400;2023-02-11T17:01:36;7.50;99.90
2112;DHT22;1062;52.538;13.400;2023-02-11T17:04:03;7.50;99.90
2112;DHT22;1062;52.538;13.400;2023-02-11T17:06:29;7.40;99.90
2112;DHT22;1062;52.538;13.400;2023-02-11T17:08:54;7.50;99.90
2112;DHT22;1062;52.538;13.400;2023-02-11T17:11:20;7.50;99.90
2112;DHT22;1062;52.538;13.400;2023-02-11T17:13:46;7.50;99.90
2112;DHT22;1062;52.538;13.400;2023-02-11T17:16:20;7.50;99.90
2112;DHT22;1062;52.538;13.400;2023-02-11T17:18:47;7.50;99.90
2112;DHT22;1062;52.538;13.400;2023-02-11T17:21:13;7.50;99.90
2112;DHT22;1062;52.538;13.400;2023-02-11T17:23:39;7.50;99.90
2112;DHT22;1062;52.538;13.400;2023-02-11T17:26:05;7.50;99.90
2112;DHT22;1062;52.538;13.400;2023-02-11T17:28:31;7.50;99.90
2112;DHT22;1062;52.538;13.400;2023-02-11T17:30:57;7.50;99.90
2112;DHT22;1062;52.538;13.400;2023-02-11T17:33:23;7.50;99.90
2112;DHT22;1062;52.538;13.400;2023-02-11T17:35:49;7.60;99.90
2112;DHT22;1062;52.538;13.400;2023-02-11T17:38:15;7.50;99.90
2112;DHT22;1062;52.538;13.400;2023-02-11T17:40:40;7.50;99.90
2112;DHT22;1062;52.538;13.400;2023-02-11T17:43:06;7.60;99.90
2112;DHT22;1062;52.538;13.400;2023-02-11T17:45:32;7.50;99.90
2112;DHT22;1062;52.538;13.400;2023-02-11T17:47:57;7.60;99.90
2112;DHT22;1062;52.538;13.400;2023-02-11T17:50:23;7.60;99.90
2112;DHT22;1062;52.538;13.400;2023-02-11T17:52:48;7.60;99.90
2112;DHT22;1062;52.538;13.400;2023-02-11T17:55:14;7.60;99.90
2112;DHT22;1062;52.538;13.400;2023-02-11T17:57:39;7.60;99.90
2112;DHT22;1062;52.538;13.400;2023-02-11T18:00:06;7.60;99.90
2112;DHT22;1062;52.538;13.400;2023-02-11T18:02:33;7.50;99.90
2112;DHT22;1062;52.538;13.400;2023-02-11T18:04:58;7.50;99.90
2112;DHT22;1062;52.538;13.400;2023-02-11T18:07:25;7.60;99.90
2112;DHT22;1062;52.538;13.400;2023-02-11T18:09:51;7.60;99.90
2112;DHT22;1062;52.538;13.400;2023-02-11T18:12:17;7.60;99.90
2112;DHT22;1062;52.538;13.400;2023-02-11T18:14:50;7.60;99.90
2112;DHT22;1062;52.538;13.400;2023-02-11T18:17:18;7.60;99.90
2112;DHT22;1062;52.538;13.400;2023-02-11T18:19:44;7.60;99.90
2112;DHT22;1062;52.538;13.400;2023-02-11T18:22:10;7.60;99.90
2112;DHT22;1062;52.538;13.400;2023-02-11T18:24:35;7.60;99.90
2112;DHT22;1062;52.538;13.400;2023-02-11T18:27:01;7.60;99.90
2112;DHT22;1062;52.538;13.400;2023-02-11T18:29:27;7.60;99.90
2112;DHT22;1062;52.538;13.400;2023-02-11T18:31:55;7.60;99.90
2112;DHT22;1062;52.538;13.400;2023-02-11T18:34:22;7.70;99.90
2112;DHT22;1062;52.538;13.400;2023-02-11T18:36:48;7.70;99.90
2112;DHT22;1062;52.538;13.400;2023-02-11T18:39:14;7.70;99.90
2112;DHT22;1062;52.538;13.400;2023-02-11T18:41:40;7.70;99.90
2112;DHT22;1062;52.538;13.400;2023-02-11T18:44:07;7.70;99.90
2112;DHT22;1062;52.538;13.400;2023-02-11T18:46:33;7.70;99.90
2112;DHT22;1062;52.538;13.400;2023-02-11T18:48:59;7.70;99.90